Time;durP1;ratioP1;P1;durP2;ratioP2;P2;SDS_P1;SDS_P2;PMS_P1;PMS_P2;Temp;Humidity;BMP_temperature;BMP_pressure;BME280_temperature;BME280_humidity;BME280_pressure;Samples;Min_cycle;Max_cycle;Signal;HPM_P1;HPM_P2
2022/12/17 13:06:40;;;;;;;6.82;5.15;;;8.10;99.90;;;;;;4936045;29;20046;-63
2022/12/17 13:09:19;;;;;;;5.63;4.10;;;8.10;99.90;;;;;;5035024;28;20483;-63
2022/12/17 13:12:03;;;;;;;5.25;3.97;;;8.20;99.90;;;;;;5035145;28;20037;-63
2022/12/17 13:14:55;;;;;;;5.00;4.30;;;7.90;99.90;;;;;;5034954;28;20026;-63
2022/12/17 13:17:53;;;;;;;5.78;4.45;;;8.00;99.90;;;;;;5034711;28;20064;-63
2022/12/17 13:20:29;;;;;;;5.50;4.72;;;8.20;99.90;;;;;;5034647;28;20038;-63
2022/12/17 13:23:24;;;;;;;4.70;4.20;;;8.40;99.90;;;;;;5035012;28;20100;-63
2022/12/17 13:26:15;;;;;;;5.63;4.68;;;8.50;99.90;;;;;;5034363;28;20124;-63
2022/12/17 13:28:47;;;;;;;4.60;3.78;;;8.60;99.90;;;;;;5047494;28;20017;-63
2022/12/17 13:31:23;;;;;;;4.60;3.53;;;8.40;99.90;;;;;;5054639;28;20060;-63
2022/12/17 13:34:04;;;;;;;4.07;3.67;;;8.30;99.90;;;;;;5054849;28;20068;-63
2022/12/17 13:36:43;;;;;;;5.00;4.20;;;8.40;99.90;;;;;;5054395;28;20029;-63
2022/12/17 13:39:09;;;;;;;5.60;3.90;;;8.60;99.90;;;;;;5054999;28;20378;-63
2022/12/17 13:41:37;;;;;;;4.85;3.58;;;8.50;99.90;;;;;;5053305;28;20147;-63
2022/12/17 13:44:24;;;;;;;5.97;4.43;;;8.40;99.90;;;;;;5054425;28;20028;-63
2022/12/17 13:46:52;;;;;;;4.20;3.80;;;8.60;99.90;;;;;;5054082;28;20103;-63
2022/12/17 13:49:22;;;;;;;5.22;4.30;;;8.40;99.90;;;;;;5054216;28;20090;-63
2022/12/17 13:52:04;;;;;;;5.32;4.50;;;8.50;99.90;;;;;;5054275;28;20029;-63
2022/12/17 13:54:31;;;;;;;7.88;6.10;;;8.60;99.90;;;;;;5054302;28;20429;-63
2022/12/17 13:57:13;;;;;;;4.50;4.03;;;8.70;99.90;;;;;;5054320;28;20055;-63
2022/12/17 13:59:38;;;;;;;5.60;4.57;;;8.50;99.90;;;;;;5054094;28;20033;-63
2022/12/17 14:02:05;;;;;;;5.38;4.30;;;8.50;99.90;;;;;;5053826;28;20029;-63
2022/12/17 14:04:31;;;;;;;7.15;4.90;;;8.40;99.90;;;;;;5054430;28;20040;-62
2022/12/17 14:07:04;;;;;;;5.30;4.55;;;8.60;99.90;;;;;;5054038;28;20017;-62
2022/12/17 14:09:37;;;;;;;6.93;4.95;;;8.50;99.90;;;;;;5053616;28;21118;-63
2022/12/17 14:12:20;;;;;;;4.60;3.72;;;8.60;99.90;;;;;;5054064;28;20442;-63
2022/12/17 14:14:54;;;;;;;6.67;4.07;;;8.50;99.90;;;;;;5053826;28;20581;-63
2022/12/17 14:17:42;;;;;;;4.82;3.80;;;8.60;99.90;;;;;;5053816;28;20111;-63
2022/12/17 14:20:35;;;;;;;5.93;4.50;;;8.60;99.90;;;;;;5053852;28;20124;-63
2022/12/17 14:23:00;;;;;;;5.78;3.97;;;8.50;99.90;;;;;;5051884;28;20033;-62
2022/12/17 14:25:33;;;;;;;5.47;4.20;;;8.30;99.90;;;;;;5053685;28;20387;-63
2022/12/17 14:28:02;;;;;;;4.90;4.25;;;8.40;99.90;;;;;;5053751;28;20025;-63
2022/12/17 14:30:39;;;;;;;4.85;3.92;;;8.40;99.90;;;;;;5053127;28;20554;-63
2022/12/17 14:33:27;;;;;;;5.38;4.28;;;8.50;99.90;;;;;;5053648;28;20028;-63
2022/12/17 14:35:55;;;;;;;7.68;5.30;;;8.50;99.90;;;;;;5053523;28;20434;-63
2022/12/17 14:38:21;;;;;;;5.78;4.15;;;8.40;99.90;;;;;;5053567;28;20171;-63
2022/12/17 14:40:47;;;;;;;6.43;4.10;;;8.40;99.90;;;;;;5053278;28;20029;-63
2022/12/17 14:43:14;;;;;;;6.90;3.42;;;8.40;99.90;;;;;;5053582;28;20056;-63
2022/12/17 14:51:23;;;;;;;;;;;8.50;99.90;;;;;;5053617;28;20056;-63
2022/12/17 14:53:49;;;;;;;13.32;9.18;;;8.50;99.90;;;;;;5053270;28;20277;-63
2022/12/17 14:56:22;;;;;;;7.55;5.20;;;8.50;99.90;;;;;;5053022;28;20083;-62
2022/12/17 14:58:48;;;;;;;7.70;4.70;;;8.60;99.90;;;;;;5052722;28;20028;-63
2022/12/17 15:01:14;;;;;;;6.68;4.93;;;8.60;99.90;;;;;;5051774;28;20029;-63
2022/12/17 15:03:44;;;;;;;7.30;6.03;;;8.60;99.90;;;;;;5053047;28;20028;-63
2022/12/17 15:06:16;;;;;;;5.72;3.85;;;8.70;99.90;;;;;;5053334;28;20032;-63
2022/12/17 15:08:45;;;;;;;4.72;3.70;;;8.50;99.90;;;;;;5052435;28;20044;-63
2022/12/17 15:11:13;;;;;;;5.63;3.33;;;8.40;99.90;;;;;;5053008;28;20078;-63
2022/12/17 15:13:39;;;;;;;4.93;4.15;;;8.40;99.90;;;;;;5052498;28;20033;-63
2022/12/17 15:16:05;;;;;;;7.10;5.20;;;8.50;99.90;;;;;;5052666;28;20035;-62
2022/12/17 15:18:30;;;;;;;6.00;4.20;;;8.40;99.90;;;;;;5052255;28;20030;-63
2022/12/17 15:20:56;;;;;;;4.80;4.28;;;8.40;99.90;;;;;;5052657;28;20499;-63
2022/12/17 15:23:23;;;;;;;6.38;5.78;;;8.30;99.90;;;;;;5052947;28;20036;-63
2022/12/17 15:25:50;;;;;;;6.88;4.65;;;8.30;99.90;;;;;;5052623;28;20440;-62
2022/12/17 15:28:18;;;;;;;5.35;4.50;;;8.30;99.90;;;;;;5052171;28;20029;-63
2022/12/17 15:30:44;;;;;;;4.18;3.78;;;8.30;99.90;;;;;;5052439;28;20083;-63
2022/12/17 15:33:10;;;;;;;4.80;3.55;;;8.20;99.90;;;;;;5052502;28;20021;-62
2022/12/17 15:35:37;;;;;;;4.18;3.78;;;8.20;99.90;;;;;;5052760;28;20393;-62
2022/12/17 15:38:04;;;;;;;15.52;9.07;;;8.10;99.90;;;;;;5052455;28;20021;-63
2022/12/17 15:40:30;;;;;;;12.23;9.02;;;8.00;99.90;;;;;;5052281;28;20025;-63
2022/12/17 15:43:11;;;;;;;8.57;5.65;;;8.00;99.90;;;;;;5052199;28;20036;-63
2022/12/17 15:45:41;;;;;;;5.05;4.55;;;8.00;99.90;;;;;;5050135;28;20028;-62
2022/12/17 15:48:07;;;;;;;6.32;4.60;;;8.10;99.90;;;;;;5051216;28;20025;-62
2022/12/17 15:50:33;;;;;;;8.43;6.30;;;8.00;99.90;;;;;;5052272;28;20044;-62
2022/12/17 15:52:59;;;;;;;6.22;4.78;;;7.80;99.90;;;;;;5052291;28;20108;-62
2022/12/17 15:55:25;;;;;;;20.50;16.80;;;7.70;99.90;;;;;;5052311;28;20100;-62
2022/12/17 15:57:51;;;;;;;22.25;17.33;;;7.50;99.90;;;;;;5052183;28;20477;-62
2022/12/17 16:00:17;;;;;;;20.40;14.27;;;7.50;99.90;;;;;;5052164;28;20028;-62
2022/12/17 16:02:42;;;;;;;23.48;20.92;;;7.40;99.90;;;;;;5052245;28;20025;-62
2022/12/17 16:05:09;;;;;;;20.55;18.42;;;7.20;99.90;;;;;;5052005;28;20497;-62
2022/12/17 16:07:36;;;;;;;25.42;21.50;;;7.10;99.90;;;;;;5050895;28;20036;-62
2022/12/17 16:10:03;;;;;;;25.13;22.52;;;6.70;99.90;;;;;;5051227;28;20514;-64
2022/12/17 16:12:28;;;;;;;21.88;19.65;;;6.40;99.90;;;;;;5051488;28;20021;-63
2022/12/17 16:14:54;;;;;;;13.38;11.98;;;6.20;99.90;;;;;;5051776;28;20433;-63
2022/12/17 16:17:20;;;;;;;13.20;9.07;;;6.20;99.90;;;;;;5051721;28;20024;-64
2022/12/17 16:19:45;;;;;;;16.52;14.82;;;6.10;99.90;;;;;;5052088;28;20052;-63
2022/12/17 16:22:11;;;;;;;27.95;23.73;;;6.00;99.90;;;;;;5052275;28;20025;-64
2022/12/17 16:24:37;;;;;;;16.30;14.10;;;5.80;99.90;;;;;;5051315;28;20025;-63
2022/12/17 16:27:03;;;;;;;17.25;14.35;;;5.60;99.90;;;;;;5051815;28;20025;-63
2022/12/17 16:29:28;;;;;;;20.40;18.15;;;5.60;99.90;;;;;;5050711;28;20421;-64
2022/12/17 16:31:54;;;;;;;18.10;16.25;;;5.60;99.90;;;;;;5054814;28;20482;-64
2022/12/17 16:34:20;;;;;;;22.08;17.92;;;5.30;99.90;;;;;;5056157;28;20517;-63
2022/12/17 16:36:45;;;;;;;21.25;19.05;;;5.10;99.90;;;;;;5055789;28;20029;-64
2022/12/17 16:39:17;;;;;;;32.17;25.75;;;5.00;99.90;;;;;;5055620;28;20028;-64
2022/12/17 16:41:43;;;;;;;20.80;17.65;;;4.80;99.90;;;;;;5055341;28;20055;-63
2022/12/17 16:44:08;;;;;;;24.10;21.42;;;4.70;99.90;;;;;;5056010;28;20021;-63
2022/12/17 16:46:37;;;;;;;26.80;23.85;;;4.60;99.90;;;;;;5055609;28;20108;-63
2022/12/17 16:49:16;;;;;;;29.35;26.30;;;4.60;99.90;;;;;;5055414;28;20021;-63
2022/12/17 16:51:43;;;;;;;27.58;24.85;;;4.40;99.90;;;;;;5054611;28;20028;-63
2022/12/17 16:54:14;;;;;;;121.65;101.28;;;4.20;99.90;;;;;;5054630;28;20474;-63
2022/12/17 16:56:42;;;;;;;83.13;65.88;;;4.20;99.90;;;;;;5054957;28;20025;-63
2022/12/17 16:59:09;;;;;;;127.28;102.20;;;4.10;99.90;;;;;;5055748;28;20020;-61
2022/12/17 17:01:36;;;;;;;69.82;57.20;;;3.90;99.90;;;;;;5055453;28;20477;-62
2022/12/17 17:04:03;;;;;;;40.92;35.88;;;3.70;99.90;;;;;;5055241;28;20033;-62
2022/12/17 17:06:29;;;;;;;17.10;15.35;;;3.70;99.90;;;;;;5054799;28;20014;-62
2022/12/17 17:08:55;;;;;;;19.95;17.95;;;3.80;99.90;;;;;;5054984;28;20076;-61
2022/12/17 17:11:23;;;;;;;16.40;14.65;;;3.80;99.90;;;;;;5054662;28;20083;-63
2022/12/17 17:13:53;;;;;;;19.35;17.45;;;3.80;99.90;;;;;;5055640;28;20033;-62
2022/12/17 17:16:25;;;;;;;25.42;22.92;;;3.60;99.90;;;;;;5055088;28;20104;-63
2022/12/17 17:18:51;;;;;;;29.45;26.52;;;3.60;99.90;;;;;;5055169;28;20416;-62
2022/12/17 17:21:26;;;;;;;45.00;40.42;;;3.60;99.90;;;;;;5055282;28;20062;-62
2022/12/17 17:23:56;;;;;;;67.75;61.15;;;3.50;99.90;;;;;;5054638;28;20017;-62
2022/12/17 17:26:22;;;;;;;72.65;65.50;;;3.30;99.90;;;;;;5055105;28;20548;-63
2022/12/17 17:28:48;;;;;;;51.67;46.67;;;3.40;99.90;;;;;;5054681;28;20115;-62
2022/12/17 17:31:15;;;;;;;38.90;35.20;;;3.30;99.90;;;;;;5054871;28;20021;-63
2022/12/17 17:33:47;;;;;;;27.23;24.63;;;3.20;99.90;;;;;;5055043;28;20023;-62
2022/12/17 17:36:22;;;;;;;30.65;27.65;;;3.40;99.90;;;;;;5054156;28;20040;-62
2022/12/17 17:38:49;;;;;;;21.08;18.80;;;3.40;99.90;;;;;;5054473;28;20449;-63
2022/12/17 17:41:18;;;;;;;13.65;11.93;;;3.30;99.90;;;;;;5054188;28;20024;-62
2022/12/17 17:43:45;;;;;;;26.13;23.67;;;3.20;99.90;;;;;;5054746;28;20033;-63
2022/12/17 17:46:17;;;;;;;25.00;22.60;;;3.10;99.90;;;;;;5054933;28;20074;-62
2022/12/17 17:48:44;;;;;;;19.13;17.10;;;3.00;99.90;;;;;;5054563;28;20485;-61
2022/12/17 17:51:16;;;;;;;23.95;21.75;;;2.90;99.90;;;;;;5054460;28;20021;-61
2022/12/17 17:53:44;;;;;;;23.23;21.13;;;2.60;99.90;;;;;;5054202;28;20112;-61
2022/12/17 17:56:15;;;;;;;22.40;20.30;;;2.50;99.90;;;;;;5054330;28;20021;-61
2022/12/17 17:58:47;;;;;;;24.98;22.38;;;2.50;99.90;;;;;;5054364;28;20259;-61
2022/12/17 18:01:18;;;;;;;25.60;23.08;;;2.40;99.90;;;;;;5054347;28;20509;-61
2022/12/17 18:03:44;;;;;;;27.25;24.60;;;2.40;99.90;;;;;;5054658;28;20081;-61
2022/12/17 18:06:12;;;;;;;23.73;21.52;;;2.30;99.90;;;;;;5054092;28;20025;-61
2022/12/17 18:08:39;;;;;;;24.70;21.77;;;2.30;99.90;;;;;;5053482;28;20049;-62
2022/12/17 18:11:07;;;;;;;20.33;18.23;;;2.30;99.90;;;;;;5053959;28;20040;-61
2022/12/17 18:16:19;;;;;;;22.15;19.75;;;2.10;99.90;;;;;;5054028;28;20166;-62
2022/12/17 18:18:45;;;;;;;19.50;17.33;;;2.30;99.90;;;;;;5053765;28;20036;-63
2022/12/17 18:21:13;;;;;;;23.20;19.73;;;2.50;99.90;;;;;;5054191;28;20386;-61
2022/12/17 18:23:40;;;;;;;22.00;19.25;;;2.60;99.90;;;;;;5053447;28;20039;-62
2022/12/17 18:26:14;;;;;;;27.63;21.10;;;2.70;99.90;;;;;;5053843;28;20029;-63
2022/12/17 18:28:41;;;;;;;23.98;19.42;;;2.60;99.90;;;;;;5052971;28;20025;-62
2022/12/17 18:31:09;;;;;;;18.60;16.05;;;2.70;99.90;;;;;;5053637;28;20025;-63
2022/12/17 18:33:36;;;;;;;22.63;20.33;;;2.50;99.90;;;;;;5053560;28;20033;-62
2022/12/17 18:36:14;;;;;;;17.08;14.95;;;2.30;99.90;;;;;;5053016;28;20078;-63
2022/12/17 18:38:40;;;;;;;10.05;9.13;;;2.30;99.90;;;;;;5053471;28;20481;-62
2022/12/17 18:44:02;;;;;;;;;;;2.30;99.90;;;;;;5053971;28;20032;-62
2022/12/17 18:46:28;;;;;;;12.90;10.70;;;2.20;99.90;;;;;;5053310;28;19904;-62
2022/12/17 18:48:59;;;;;;;11.40;10.32;;;2.30;99.90;;;;;;5053036;28;20025;-62
2022/12/17 18:51:25;;;;;;;12.77;11.45;;;2.30;99.90;;;;;;5053140;28;20043;-63
2022/12/17 18:53:55;;;;;;;11.02;9.77;;;2.20;99.90;;;;;;5052257;28;20021;-62
2022/12/17 18:56:20;;;;;;;11.13;9.77;;;2.10;99.90;;;;;;5053139;28;20029;-62
2022/12/17 18:58:46;;;;;;;14.07;12.77;;;2.00;99.90;;;;;;5052994;28;20385;-62
2022/12/17 19:01:22;;;;;;;12.85;11.63;;;2.10;99.90;;;;;;5053128;28;20025;-62
2022/12/17 19:03:48;;;;;;;18.77;16.88;;;2.20;99.90;;;;;;5053292;28;20017;-63
2022/12/17 19:06:13;;;;;;;26.25;20.83;;;2.30;99.90;;;;;;5052424;28;20497;-62
2022/12/17 19:08:39;;;;;;;25.42;21.55;;;2.50;99.90;;;;;;5052622;28;20044;-62
2022/12/17 19:11:07;;;;;;;63.22;55.47;;;2.90;99.90;;;;;;5052829;28;20045;-62
2022/12/17 19:13:32;;;;;;;25.05;22.40;;;2.60;99.90;;;;;;5052979;28;20043;-63
2022/12/17 19:16:16;;;;;;;71.43;49.00;;;2.40;99.90;;;;;;5053135;28;20029;-63
2022/12/17 19:18:42;;;;;;;;;;;2.50;99.90;;;;;;5052934;28;20496;-62
2022/12/17 19:21:13;;;;;;;38.33;33.65;;;2.50;99.90;;;;;;5052761;28;19905;-62
2022/12/17 19:23:39;;;;;;;31.10;27.73;;;2.50;99.90;;;;;;5052772;28;20040;-63
2022/12/17 19:26:14;;;;;;;26.50;23.27;;;2.60;99.90;;;;;;5052752;28;20482;-62
2022/12/17 19:28:41;;;;;;;33.65;28.10;;;2.80;99.90;;;;;;5052355;28;20537;-62
2022/12/17 19:31:08;;;;;;;31.85;26.58;;;2.60;99.90;;;;;;5052542;28;20401;-62
2022/12/17 19:33:35;;;;;;;32.72;28.70;;;2.80;99.90;;;;;;5052366;28;20525;-62
2022/12/17 19:36:06;;;;;;;35.28;31.02;;;2.80;99.90;;;;;;5052251;28;20111;-62
2022/12/17 19:38:32;;;;;;;34.88;31.27;;;2.80;99.90;;;;;;5052655;28;20040;-62
2022/12/17 19:41:09;;;;;;;29.58;25.20;;;2.70;99.90;;;;;;5052430;28;20056;-62
2022/12/17 19:43:36;;;;;;;34.08;30.83;;;2.80;99.90;;;;;;5052449;28;20029;-62
2022/12/17 19:46:07;;;;;;;28.80;25.83;;;2.70;99.90;;;;;;5052182;28;20401;-62
2022/12/17 19:48:34;;;;;;;34.38;31.17;;;2.90;99.90;;;;;;5051844;28;20028;-62
2022/12/17 19:51:00;;;;;;;26.30;23.65;;;2.80;99.90;;;;;;5052231;28;20116;-62
2022/12/17 19:53:27;;;;;;;49.40;44.03;;;2.60;99.90;;;;;;5052279;28;20039;-63
2022/12/17 19:56:07;;;;;;;118.28;72.22;;;2.60;99.90;;;;;;5052084;28;20025;-63
2022/12/17 19:58:32;;;;;;;43.90;33.65;;;2.80;99.90;;;;;;5052116;28;20020;-62
2022/12/17 20:01:05;;;;;;;20.60;18.50;;;3.00;99.90;;;;;;5052077;28;20029;-62
2022/12/17 20:03:31;;;;;;;27.05;24.15;;;3.20;99.90;;;;;;5051742;28;20033;-62
2022/12/17 20:05:57;;;;;;;24.58;22.15;;;3.30;99.90;;;;;;5052234;28;20382;-62
2022/12/17 20:08:23;;;;;;;24.58;22.08;;;3.40;99.90;;;;;;5051894;28;20021;-63
2022/12/17 20:10:49;;;;;;;29.30;26.40;;;3.40;99.90;;;;;;5051750;28;20041;-63
2022/12/17 20:13:14;;;;;;;27.13;24.25;;;3.60;99.90;;;;;;5051093;28;20025;-63
2022/12/17 20:15:40;;;;;;;27.13;22.98;;;3.50;99.90;;;;;;5051945;28;20021;-62
2022/12/17 20:18:06;;;;;;;21.20;18.98;;;3.70;99.90;;;;;;5051507;28;20478;-63
2022/12/17 20:20:32;;;;;;;29.05;24.58;;;3.90;99.90;;;;;;5051986;28;20029;-62
2022/12/17 20:22:57;;;;;;;18.05;14.02;;;4.00;99.90;;;;;;5052029;28;20451;-62
2022/12/17 20:25:23;;;;;;;18.33;14.10;;;4.00;99.90;;;;;;5052206;28;20025;-62
2022/12/17 20:27:49;;;;;;;25.27;18.60;;;4.00;99.90;;;;;;5051628;28;20033;-62
2022/12/17 20:30:15;;;;;;;21.77;16.05;;;3.90;99.90;;;;;;5051637;28;20037;-62
2022/12/17 20:32:40;;;;;;;24.70;18.70;;;4.00;99.90;;;;;;5051821;28;20025;-62
2022/12/17 20:35:07;;;;;;;18.58;14.52;;;4.00;99.90;;;;;;5050537;28;20106;-62
2022/12/17 20:37:32;;;;;;;16.27;13.38;;;4.20;99.90;;;;;;5051732;28;20024;-62
2022/12/17 20:39:58;;;;;;;14.20;10.43;;;4.30;99.90;;;;;;5051852;28;20027;-63
2022/12/17 20:42:24;;;;;;;14.30;11.00;;;4.10;99.90;;;;;;5051614;28;20017;-63
2022/12/17 20:44:49;;;;;;;17.48;13.55;;;4.10;99.90;;;;;;5052033;28;20021;-62
2022/12/17 20:47:15;;;;;;;27.90;21.52;;;4.20;99.90;;;;;;5050046;28;20389;-62
2022/12/17 20:49:41;;;;;;;23.60;21.27;;;4.20;99.90;;;;;;5051536;28;20063;-63
2022/12/17 20:52:06;;;;;;;23.20;20.95;;;4.20;99.90;;;;;;5051349;28;20017;-62
2022/12/17 20:54:33;;;;;;;15.80;13.80;;;4.10;99.90;;;;;;5051822;28;20549;-63
2022/12/17 20:56:59;;;;;;;15.82;13.00;;;4.20;99.90;;;;;;5051696;28;20036;-62
2022/12/17 20:59:24;;;;;;;14.65;10.88;;;4.20;99.90;;;;;;5051577;28;20037;-62
2022/12/17 21:01:50;;;;;;;17.25;11.23;;;4.10;99.90;;;;;;5051290;28;20025;-63
2022/12/17 21:04:16;;;;;;;15.43;10.07;;;4.20;99.90;;;;;;5051448;28;20028;-62
2022/12/17 21:06:44;;;;;;;18.08;12.00;;;4.20;99.90;;;;;;5051382;28;20107;-62
2022/12/17 21:09:11;;;;;;;14.65;11.40;;;4.20;99.90;;;;;;5051151;28;20048;-62
2022/12/17 21:11:38;;;;;;;14.43;11.80;;;4.20;99.90;;;;;;5051476;28;20029;-62
2022/12/17 21:14:10;;;;;;;15.48;11.75;;;4.10;99.90;;;;;;5051454;28;20029;-62
2022/12/17 21:16:37;;;;;;;17.13;12.77;;;4.20;99.90;;;;;;5051573;28;20545;-62
2022/12/17 21:19:04;;;;;;;15.43;11.18;;;4.20;99.90;;;;;;5055009;28;20406;-63
2022/12/17 21:21:32;;;;;;;14.32;11.55;;;4.10;99.90;;;;;;5054950;28;20070;-63
2022/12/17 21:23:59;;;;;;;13.52;12.05;;;4.20;99.90;;;;;;5055363;28;20387;-63
2022/12/17 21:26:27;;;;;;;12.98;11.68;;;4.20;99.90;;;;;;5054727;28;20075;-62
2022/12/17 21:28:57;;;;;;;12.82;10.80;;;4.20;99.90;;;;;;5054512;28;20083;-62
2022/12/17 21:31:24;;;;;;;14.10;11.98;;;4.20;99.90;;;;;;5054732;28;20021;-63
2022/12/17 21:33:51;;;;;;;13.23;11.07;;;4.30;99.90;;;;;;5054563;28;20490;-63
2022/12/17 21:36:19;;;;;;;11.88;10.23;;;4.30;99.90;;;;;;5054905;28;20151;-62
2022/12/17 21:38:46;;;;;;;11.75;10.48;;;4.30;99.90;;;;;;5054752;28;20028;-63
2022/12/17 21:41:15;;;;;;;13.48;10.45;;;4.30;99.90;;;;;;5054579;28;20104;-62
2022/12/17 21:43:41;;;;;;;12.25;10.85;;;4.20;99.90;;;;;;5054552;28;20060;-63
2022/12/17 21:46:08;;;;;;;11.00;9.32;;;4.30;99.90;;;;;;5054139;28;20060;-63
2022/12/17 21:48:36;;;;;;;12.25;10.23;;;4.20;99.90;;;;;;5054516;28;20032;-62
2022/12/17 21:51:04;;;;;;;11.45;10.15;;;4.30;99.90;;;;;;5054449;28;20397;-62
2022/12/17 21:53:30;;;;;;;12.73;10.82;;;4.20;99.90;;;;;;5054219;28;20071;-62
2022/12/17 21:56:11;;;;;;;13.30;11.35;;;4.30;99.90;;;;;;5054730;28;20029;-62
2022/12/17 21:58:37;;;;;;;12.80;10.75;;;4.30;99.90;;;;;;5054118;28;20029;-62
2022/12/17 22:01:14;;;;;;;11.73;10.52;;;4.30;99.90;;;;;;5053941;28;20478;-62
2022/12/17 22:03:40;;;;;;;13.75;11.95;;;4.30;99.90;;;;;;5054191;28;20025;-63
2022/12/17 22:06:08;;;;;;;13.38;11.95;;;4.20;99.90;;;;;;5054039;28;20032;-62
2022/12/17 22:08:35;;;;;;;14.77;11.07;;;4.10;99.90;;;;;;5053829;28;20147;-63
2022/12/17 22:11:01;;;;;;;13.95;10.38;;;4.20;99.90;;;;;;5053714;28;20456;-63
2022/12/17 22:16:10;;;;;;;13.07;11.38;;;4.10;99.90;;;;;;5054408;28;20067;-63
2022/12/17 22:18:36;;;;;;;17.63;15.82;;;4.10;99.90;;;;;;5053810;28;20052;-62
2022/12/17 22:21:02;;;;;;;14.20;12.75;;;4.00;99.90;;;;;;5053933;28;20025;-63
2022/12/17 22:23:28;;;;;;;18.35;16.33;;;4.00;99.90;;;;;;5053969;28;20041;-62
2022/12/17 22:25:54;;;;;;;15.52;14.00;;;4.10;99.90;;;;;;5053508;28;20021;-62
2022/12/17 22:28:19;;;;;;;13.30;11.77;;;4.00;99.90;;;;;;5053444;28;20085;-61
2022/12/17 22:33:49;;;;;;;14.15;11.40;;;3.90;99.90;;;;;;5051453;28;20056;-62
2022/12/17 22:36:14;;;;;;;12.98;11.68;;;4.00;99.90;;;;;;5051500;28;20044;-61
2022/12/17 22:38:40;;;;;;;11.90;10.70;;;3.90;99.90;;;;;;5051323;28;20631;-61
2022/12/17 22:41:06;;;;;;;13.52;10.98;;;3.90;99.90;;;;;;5051568;28;20025;-61
2022/12/17 22:43:33;;;;;;;12.98;10.77;;;3.90;99.90;;;;;;5050614;28;20420;-61
2022/12/17 22:46:01;;;;;;;14.50;12.30;;;3.90;99.90;;;;;;5051207;28;20028;-62
2022/12/17 22:48:28;;;;;;;15.30;12.82;;;3.90;99.90;;;;;;5051372;28;20500;-62
2022/12/17 22:50:54;;;;;;;11.60;10.45;;;3.90;99.90;;;;;;5050440;28;20037;-62
2022/12/17 22:53:21;;;;;;;12.02;10.30;;;3.90;99.90;;;;;;5050596;28;20021;-62
2022/12/17 22:55:47;;;;;;;12.18;10.65;;;3.90;99.90;;;;;;5050984;28;20043;-62
2022/12/17 22:58:13;;;;;;;13.68;12.25;;;3.80;99.90;;;;;;5050664;28;20411;-61
2022/12/17 23:00:39;;;;;;;12.85;11.55;;;3.80;99.90;;;;;;5051133;28;20152;-62
2022/12/17 23:03:04;;;;;;;13.27;11.45;;;3.80;99.90;;;;;;5050918;28;20040;-61
2022/12/17 23:05:31;;;;;;;14.57;12.45;;;3.80;99.90;;;;;;5050796;28;20492;-61
2022/12/17 23:07:57;;;;;;;11.90;10.80;;;3.70;99.90;;;;;;5052473;28;20041;-62
2022/12/17 23:10:24;;;;;;;12.88;11.50;;;3.80;99.90;;;;;;5050974;28;20445;-62
2022/12/17 23:12:51;;;;;;;12.07;10.55;;;3.80;99.90;;;;;;5052213;28;20021;-62
2022/12/17 23:15:29;;;;;;;12.27;10.98;;;3.70;99.90;;;;;;5052744;28;20410;-62
2022/12/17 23:17:58;;;;;;;12.15;10.88;;;3.70;99.90;;;;;;5053107;28;20048;-62
2022/12/17 23:20:24;;;;;;;14.15;11.30;;;3.70;99.90;;;;;;5052864;28;20021;-62
2022/12/17 23:22:50;;;;;;;12.98;11.32;;;3.70;99.90;;;;;;5052785;28;20452;-62
2022/12/17 23:25:16;;;;;;;14.48;11.43;;;3.70;99.90;;;;;;5052482;28;20063;-62
2022/12/17 23:27:43;;;;;;;14.75;13.13;;;3.70;99.90;;;;;;5051901;28;20028;-62
2022/12/17 23:30:10;;;;;;;12.02;10.93;;;3.70;99.90;;;;;;5052355;28;20472;-62
2022/12/17 23:32:36;;;;;;;16.63;13.48;;;3.70;99.90;;;;;;5053126;28;20100;-62
2022/12/17 23:35:03;;;;;;;13.65;11.98;;;3.60;99.90;;;;;;5052502;28;20390;-62
2022/12/17 23:37:28;;;;;;;12.98;11.60;;;3.60;99.90;;;;;;5052400;28;20055;-62
2022/12/17 23:39:54;;;;;;;14.13;12.63;;;3.70;99.90;;;;;;5052385;28;20029;-62
2022/12/17 23:42:20;;;;;;;14.23;12.80;;;3.60;99.90;;;;;;5052039;28;20469;-62
2022/12/17 23:44:46;;;;;;;13.52;12.13;;;3.60;99.90;;;;;;5052289;28;20493;-62
2022/12/17 23:47:11;;;;;;;12.13;10.73;;;3.60;99.90;;;;;;5052334;28;20500;-62
2022/12/17 23:49:37;;;;;;;13.73;12.30;;;3.60;99.90;;;;;;5052318;28;20037;-62
2022/12/17 23:52:03;;;;;;;14.45;13.10;;;3.60;99.90;;;;;;5052320;28;20043;-62
2022/12/17 23:54:29;;;;;;;12.90;11.60;;;3.50;99.90;;;;;;5052087;28;20021;-62
2022/12/17 23:56:54;;;;;;;15.75;13.98;;;3.50;99.90;;;;;;5052389;28;20029;-62
2022/12/17 23:59:20;;;;;;;16.73;15.13;;;3.60;99.90;;;;;;5052335;28;20031;-62
